sensor_id;sensor_type;location;lat;lon;timestamp;P1;durP1;ratioP1;P2;durP2;ratioP2
8610;SDS011;4343;53.648;10.098;2023-07-31T00:02:22;2.60;;;1.60;;
8610;SDS011;4343;53.648;10.098;2023-07-31T00:04:48;2.05;;;1.85;;
8610;SDS011;4343;53.648;10.098;2023-07-31T00:07:14;2.50;;;1.70;;
8610;SDS011;4343;53.648;10.098;2023-07-31T00:09:39;1.80;;;1.70;;
8610;SDS011;4343;53.648;10.098;2023-07-31T00:12:05;2.15;;;2.00;;
8610;SDS011;4343;53.648;10.098;2023-07-31T00:14:31;3.70;;;2.15;;
8610;SDS011;4343;53.648;10.098;2023-07-31T00:16:56;1.88;;;1.70;;
8610;SDS011;4343;53.648;10.098;2023-07-31T00:19:22;2.03;;;1.55;;
8610;SDS011;4343;53.648;10.098;2023-07-31T00:21:47;3.25;;;2.00;;
8610;SDS011;4343;53.648;10.098;2023-07-31T00:24:14;3.85;;;1.90;;
8610;SDS011;4343;53.648;10.098;2023-07-31T00:26:39;2.47;;;1.73;;
8610;SDS011;4343;53.648;10.098;2023-07-31T00:29:04;6.38;;;1.83;;
8610;SDS011;4343;53.648;10.098;2023-07-31T00:31:30;2.08;;;1.88;;
8610;SDS011;4343;53.648;10.098;2023-07-31T00:33:55;2.10;;;1.90;;
8610;SDS011;4343;53.648;10.098;2023-07-31T00:36:21;2.05;;;1.90;;
8610;SDS011;4343;53.648;10.098;2023-07-31T00:38:46;1.77;;;1.60;;
8610;SDS011;4343;53.648;10.098;2023-07-31T00:41:12;2.60;;;1.67;;
8610;SDS011;4343;53.648;10.098;2023-07-31T00:43:38;3.20;;;1.58;;
8610;SDS011;4343;53.648;10.098;2023-07-31T00:46:03;2.38;;;2.13;;
8610;SDS011;4343;53.648;10.098;2023-07-31T00:48:29;2.17;;;2.08;;
8610;SDS011;4343;53.648;10.098;2023-07-31T00:50:55;2.00;;;1.90;;
8610;SDS011;4343;53.648;10.098;2023-07-31T00:53:20;2.33;;;2.15;;
8610;SDS011;4343;53.648;10.098;2023-07-31T00:55:46;3.42;;;2.13;;
8610;SDS011;4343;53.648;10.098;2023-07-31T00:58:12;2.05;;;1.73;;
8610;SDS011;4343;53.648;10.098;2023-07-31T01:00:37;2.67;;;2.40;;
8610;SDS011;4343;53.648;10.098;2023-07-31T01:03:03;3.85;;;2.13;;
8610;SDS011;4343;53.648;10.098;2023-07-31T01:08:18;3.15;;;1.77;;
8610;SDS011;4343;53.648;10.098;2023-07-31T01:11:16;2.63;;;2.13;;
8610;SDS011;4343;53.648;10.098;2023-07-31T01:13:47;2.30;;;2.10;;
8610;SDS011;4343;53.648;10.098;2023-07-31T01:16:14;3.70;;;2.17;;
8610;SDS011;4343;53.648;10.098;2023-07-31T01:18:39;3.45;;;2.08;;
8610;SDS011;4343;53.648;10.098;2023-07-31T01:21:17;3.05;;;2.65;;
8610;SDS011;4343;53.648;10.098;2023-07-31T01:26:40;3.47;;;2.20;;
8610;SDS011;4343;53.648;10.098;2023-07-31T01:31:56;1.98;;;1.88;;
8610;SDS011;4343;53.648;10.098;2023-07-31T01:34:25;5.32;;;2.55;;
8610;SDS011;4343;53.648;10.098;2023-07-31T01:36:52;4.20;;;2.20;;
8610;SDS011;4343;53.648;10.098;2023-07-31T01:39:19;4.53;;;1.90;;
8610;SDS011;4343;53.648;10.098;2023-07-31T01:41:45;3.60;;;2.10;;
8610;SDS011;4343;53.648;10.098;2023-07-31T01:44:11;3.05;;;2.30;;
8610;SDS011;4343;53.648;10.098;2023-07-31T01:46:36;3.92;;;2.42;;
8610;SDS011;4343;53.648;10.098;2023-07-31T01:49:02;2.15;;;1.95;;
8610;SDS011;4343;53.648;10.098;2023-07-31T01:51:27;3.83;;;2.38;;
8610;SDS011;4343;53.648;10.098;2023-07-31T01:53:53;5.15;;;2.50;;
8610;SDS011;4343;53.648;10.098;2023-07-31T01:56:18;3.28;;;2.53;;
8610;SDS011;4343;53.648;10.098;2023-07-31T01:58:44;8.73;;;2.45;;
8610;SDS011;4343;53.648;10.098;2023-07-31T02:01:09;3.38;;;2.55;;
8610;SDS011;4343;53.648;10.098;2023-07-31T02:03:35;3.65;;;2.70;;
8610;SDS011;4343;53.648;10.098;2023-07-31T02:06:00;2.97;;;2.40;;
8610;SDS011;4343;53.648;10.098;2023-07-31T02:08:26;3.13;;;2.42;;
8610;SDS011;4343;53.648;10.098;2023-07-31T02:10:51;4.63;;;3.00;;
8610;SDS011;4343;53.648;10.098;2023-07-31T02:13:17;7.60;;;3.45;;
8610;SDS011;4343;53.648;10.098;2023-07-31T02:15:42;4.95;;;2.67;;
8610;SDS011;4343;53.648;10.098;2023-07-31T02:18:08;2.72;;;2.53;;
8610;SDS011;4343;53.648;10.098;2023-07-31T02:20:34;3.92;;;2.85;;
8610;SDS011;4343;53.648;10.098;2023-07-31T02:23:00;5.30;;;2.80;;
8610;SDS011;4343;53.648;10.098;2023-07-31T02:25:26;5.40;;;2.70;;
8610;SDS011;4343;53.648;10.098;2023-07-31T02:27:51;3.05;;;2.55;;
8610;SDS011;4343;53.648;10.098;2023-07-31T02:30:17;3.65;;;2.75;;
8610;SDS011;4343;53.648;10.098;2023-07-31T02:32:42;3.25;;;2.88;;
8610;SDS011;4343;53.648;10.098;2023-07-31T02:35:08;5.82;;;2.97;;
8610;SDS011;4343;53.648;10.098;2023-07-31T02:37:33;3.40;;;2.83;;
8610;SDS011;4343;53.648;10.098;2023-07-31T02:39:59;2.70;;;2.47;;
8610;SDS011;4343;53.648;10.098;2023-07-31T02:42:24;4.35;;;2.40;;
8610;SDS011;4343;53.648;10.098;2023-07-31T02:44:50;5.25;;;3.25;;
8610;SDS011;4343;53.648;10.098;2023-07-31T02:47:20;4.15;;;2.95;;
8610;SDS011;4343;53.648;10.098;2023-07-31T02:49:46;3.67;;;2.83;;
8610;SDS011;4343;53.648;10.098;2023-07-31T02:52:12;4.40;;;2.42;;
8610;SDS011;4343;53.648;10.098;2023-07-31T02:54:37;4.25;;;2.90;;
8610;SDS011;4343;53.648;10.098;2023-07-31T02:57:03;4.10;;;2.65;;
8610;SDS011;4343;53.648;10.098;2023-07-31T02:59:29;4.90;;;2.72;;
8610;SDS011;4343;53.648;10.098;2023-07-31T03:01:54;3.03;;;2.53;;
8610;SDS011;4343;53.648;10.098;2023-07-31T03:04:20;4.88;;;3.10;;
8610;SDS011;4343;53.648;10.098;2023-07-31T03:06:45;3.17;;;2.83;;
8610;SDS011;4343;53.648;10.098;2023-07-31T03:09:11;3.25;;;2.35;;
8610;SDS011;4343;53.648;10.098;2023-07-31T03:11:36;5.15;;;3.20;;
8610;SDS011;4343;53.648;10.098;2023-07-31T03:14:02;3.50;;;3.00;;
8610;SDS011;4343;53.648;10.098;2023-07-31T03:16:27;2.83;;;2.50;;
8610;SDS011;4343;53.648;10.098;2023-07-31T03:18:53;3.47;;;3.17;;
8610;SDS011;4343;53.648;10.098;2023-07-31T03:21:19;2.58;;;2.38;;
8610;SDS011;4343;53.648;10.098;2023-07-31T03:23:44;3.33;;;2.45;;
8610;SDS011;4343;53.648;10.098;2023-07-31T03:26:10;3.97;;;2.58;;
8610;SDS011;4343;53.648;10.098;2023-07-31T03:28:36;3.33;;;2.67;;
8610;SDS011;4343;53.648;10.098;2023-07-31T03:31:01;2.92;;;2.72;;
8610;SDS011;4343;53.648;10.098;2023-07-31T03:33:27;3.60;;;2.78;;
8610;SDS011;4343;53.648;10.098;2023-07-31T03:35:53;2.63;;;2.30;;
8610;SDS011;4343;53.648;10.098;2023-07-31T03:38:18;3.58;;;2.60;;
8610;SDS011;4343;53.648;10.098;2023-07-31T03:40:44;2.78;;;2.60;;
8610;SDS011;4343;53.648;10.098;2023-07-31T03:43:11;3.40;;;2.95;;
8610;SDS011;4343;53.648;10.098;2023-07-31T03:45:37;3.88;;;3.03;;
8610;SDS011;4343;53.648;10.098;2023-07-31T03:48:03;2.83;;;2.63;;
8610;SDS011;4343;53.648;10.098;2023-07-31T03:50:29;3.10;;;2.45;;
8610;SDS011;4343;53.648;10.098;2023-07-31T03:52:54;2.78;;;2.50;;
8610;SDS011;4343;53.648;10.098;2023-07-31T03:55:20;4.00;;;2.78;;
8610;SDS011;4343;53.648;10.098;2023-07-31T03:57:46;2.70;;;2.50;;
8610;SDS011;4343;53.648;10.098;2023-07-31T04:00:12;3.90;;;2.40;;
8610;SDS011;4343;53.648;10.098;2023-07-31T04:02:38;2.53;;;2.33;;
8610;SDS011;4343;53.648;10.098;2023-07-31T04:05:03;2.80;;;2.70;;
8610;SDS011;4343;53.648;10.098;2023-07-31T04:07:29;2.45;;;2.30;;
8610;SDS011;4343;53.648;10.098;2023-07-31T04:09:55;3.65;;;2.65;;
8610;SDS011;4343;53.648;10.098;2023-07-31T04:12:20;2.67;;;2.50;;
8610;SDS011;4343;53.648;10.098;2023-07-31T04:14:46;2.95;;;2.58;;
8610;SDS011;4343;53.648;10.098;2023-07-31T04:17:11;3.63;;;2.50;;
8610;SDS011;4343;53.648;10.098;2023-07-31T04:19:37;2.70;;;2.45;;
8610;SDS011;4343;53.648;10.098;2023-07-31T04:22:02;5.63;;;2.80;;
8610;SDS011;4343;53.648;10.098;2023-07-31T04:24:29;3.65;;;2.67;;
8610;SDS011;4343;53.648;10.098;2023-07-31T04:26:55;2.42;;;2.30;;
8610;SDS011;4343;53.648;10.098;2023-07-31T04:29:21;3.97;;;2.60;;
8610;SDS011;4343;53.648;10.098;2023-07-31T04:31:47;2.35;;;2.25;;
8610;SDS011;4343;53.648;10.098;2023-07-31T04:34:13;3.35;;;2.50;;
8610;SDS011;4343;53.648;10.098;2023-07-31T04:36:38;4.05;;;2.63;;
8610;SDS011;4343;53.648;10.098;2023-07-31T04:39:04;2.97;;;2.45;;
8610;SDS011;4343;53.648;10.098;2023-07-31T04:41:30;2.25;;;2.15;;
8610;SDS011;4343;53.648;10.098;2023-07-31T04:43:55;2.45;;;2.30;;
8610;SDS011;4343;53.648;10.098;2023-07-31T04:46:21;2.30;;;2.20;;
8610;SDS011;4343;53.648;10.098;2023-07-31T04:48:46;2.80;;;2.28;;
8610;SDS011;4343;53.648;10.098;2023-07-31T04:51:12;2.38;;;2.15;;
8610;SDS011;4343;53.648;10.098;2023-07-31T04:53:37;2.40;;;2.20;;
8610;SDS011;4343;53.648;10.098;2023-07-31T04:56:03;2.22;;;2.13;;
8610;SDS011;4343;53.648;10.098;2023-07-31T04:58:28;2.00;;;1.90;;
8610;SDS011;4343;53.648;10.098;2023-07-31T05:00:54;2.38;;;2.15;;
8610;SDS011;4343;53.648;10.098;2023-07-31T05:03:19;5.75;;;3.20;;
8610;SDS011;4343;53.648;10.098;2023-07-31T05:05:45;2.33;;;2.08;;
8610;SDS011;4343;53.648;10.098;2023-07-31T05:08:11;2.15;;;2.05;;
8610;SDS011;4343;53.648;10.098;2023-07-31T05:10:36;1.75;;;1.65;;
8610;SDS011;4343;53.648;10.098;2023-07-31T05:13:02;2.53;;;2.33;;
8610;SDS011;4343;53.648;10.098;2023-07-31T05:15:28;2.00;;;1.80;;
8610;SDS011;4343;53.648;10.098;2023-07-31T05:17:53;2.05;;;1.95;;
8610;SDS011;4343;53.648;10.098;2023-07-31T05:20:19;1.67;;;1.63;;
8610;SDS011;4343;53.648;10.098;2023-07-31T05:22:45;2.40;;;1.80;;
8610;SDS011;4343;53.648;10.098;2023-07-31T05:25:10;1.67;;;1.58;;
8610;SDS011;4343;53.648;10.098;2023-07-31T05:27:36;2.15;;;1.60;;
8610;SDS011;4343;53.648;10.098;2023-07-31T05:30:01;1.67;;;1.58;;
8610;SDS011;4343;53.648;10.098;2023-07-31T05:32:27;1.77;;;1.77;;
8610;SDS011;4343;53.648;10.098;2023-07-31T05:34:52;2.13;;;2.03;;
8610;SDS011;4343;53.648;10.098;2023-07-31T05:37:18;1.92;;;1.83;;
8610;SDS011;4343;53.648;10.098;2023-07-31T05:39:44;2.00;;;1.90;;
8610;SDS011;4343;53.648;10.098;2023-07-31T05:42:10;1.60;;;1.60;;
8610;SDS011;4343;53.648;10.098;2023-07-31T05:44:35;1.70;;;1.70;;
8610;SDS011;4343;53.648;10.098;2023-07-31T05:47:01;1.60;;;1.55;;
8610;SDS011;4343;53.648;10.098;2023-07-31T05:49:26;1.77;;;1.77;;
8610;SDS011;4343;53.648;10.098;2023-07-31T05:51:52;1.90;;;1.90;;
8610;SDS011;4343;53.648;10.098;2023-07-31T05:54:18;1.65;;;1.65;;
8610;SDS011;4343;53.648;10.098;2023-07-31T05:56:43;1.63;;;1.52;;
8610;SDS011;4343;53.648;10.098;2023-07-31T05:59:09;1.70;;;1.63;;
8610;SDS011;4343;53.648;10.098;2023-07-31T06:01:37;1.65;;;1.65;;
8610;SDS011;4343;53.648;10.098;2023-07-31T06:04:02;1.45;;;1.45;;
8610;SDS011;4343;53.648;10.098;2023-07-31T06:06:28;2.13;;;1.83;;
8610;SDS011;4343;53.648;10.098;2023-07-31T06:08:54;1.58;;;1.58;;
8610;SDS011;4343;53.648;10.098;2023-07-31T06:11:22;1.60;;;1.60;;
8610;SDS011;4343;53.648;10.098;2023-07-31T06:13:48;1.60;;;1.60;;
8610;SDS011;4343;53.648;10.098;2023-07-31T06:16:15;1.73;;;1.73;;
8610;SDS011;4343;53.648;10.098;2023-07-31T06:18:41;1.65;;;1.60;;
8610;SDS011;4343;53.648;10.098;2023-07-31T06:21:07;1.52;;;1.52;;
8610;SDS011;4343;53.648;10.098;2023-07-31T06:23:32;1.55;;;1.55;;
8610;SDS011;4343;53.648;10.098;2023-07-31T06:25:58;1.58;;;1.55;;
8610;SDS011;4343;53.648;10.098;2023-07-31T06:28:27;1.50;;;1.50;;
8610;SDS011;4343;53.648;10.098;2023-07-31T06:30:54;1.60;;;1.50;;
8610;SDS011;4343;53.648;10.098;2023-07-31T06:33:19;1.40;;;1.40;;
8610;SDS011;4343;53.648;10.098;2023-07-31T06:35:45;1.60;;;1.60;;
8610;SDS011;4343;53.648;10.098;2023-07-31T06:38:10;2.13;;;1.90;;
8610;SDS011;4343;53.648;10.098;2023-07-31T06:40:36;1.90;;;1.80;;
8610;SDS011;4343;53.648;10.098;2023-07-31T06:43:02;2.35;;;2.25;;
8610;SDS011;4343;53.648;10.098;2023-07-31T06:45:33;1.60;;;1.60;;
8610;SDS011;4343;53.648;10.098;2023-07-31T06:47:59;1.95;;;1.85;;
8610;SDS011;4343;53.648;10.098;2023-07-31T06:50:26;1.73;;;1.73;;
8610;SDS011;4343;53.648;10.098;2023-07-31T06:52:53;1.70;;;1.70;;
8610;SDS011;4343;53.648;10.098;2023-07-31T06:55:19;3.92;;;1.95;;
8610;SDS011;4343;53.648;10.098;2023-07-31T06:57:46;1.83;;;1.80;;
8610;SDS011;4343;53.648;10.098;2023-07-31T07:00:16;2.15;;;2.00;;
8610;SDS011;4343;53.648;10.098;2023-07-31T07:02:42;1.65;;;1.60;;
8610;SDS011;4343;53.648;10.098;2023-07-31T07:05:07;1.63;;;1.60;;
8610;SDS011;4343;53.648;10.098;2023-07-31T07:07:33;1.83;;;1.77;;
8610;SDS011;4343;53.648;10.098;2023-07-31T07:09:59;1.90;;;1.90;;
8610;SDS011;4343;53.648;10.098;2023-07-31T07:12:25;1.60;;;1.60;;
8610;SDS011;4343;53.648;10.098;2023-07-31T07:14:51;1.80;;;1.70;;
8610;SDS011;4343;53.648;10.098;2023-07-31T07:17:18;1.48;;;1.45;;
8610;SDS011;4343;53.648;10.098;2023-07-31T07:19:44;1.95;;;1.95;;
8610;SDS011;4343;53.648;10.098;2023-07-31T07:22:10;1.92;;;1.83;;
8610;SDS011;4343;53.648;10.098;2023-07-31T07:24:36;1.70;;;1.70;;
8610;SDS011;4343;53.648;10.098;2023-07-31T07:27:02;1.65;;;1.58;;
8610;SDS011;4343;53.648;10.098;2023-07-31T07:29:28;1.63;;;1.63;;
8610;SDS011;4343;53.648;10.098;2023-07-31T07:31:53;1.50;;;1.40;;
8610;SDS011;4343;53.648;10.098;2023-07-31T07:34:19;1.80;;;1.75;;
8610;SDS011;4343;53.648;10.098;2023-07-31T07:36:44;1.77;;;1.67;;
8610;SDS011;4343;53.648;10.098;2023-07-31T07:39:10;1.30;;;1.30;;
8610;SDS011;4343;53.648;10.098;2023-07-31T07:41:36;1.80;;;1.70;;
8610;SDS011;4343;53.648;10.098;2023-07-31T07:44:01;1.65;;;1.55;;
8610;SDS011;4343;53.648;10.098;2023-07-31T07:46:27;1.38;;;1.38;;
8610;SDS011;4343;53.648;10.098;2023-07-31T07:48:53;1.50;;;1.50;;
8610;SDS011;4343;53.648;10.098;2023-07-31T07:51:34;1.15;;;1.15;;
8610;SDS011;4343;53.648;10.098;2023-07-31T07:53:59;1.30;;;1.30;;
8610;SDS011;4343;53.648;10.098;2023-07-31T07:56:25;1.25;;;1.25;;
8610;SDS011;4343;53.648;10.098;2023-07-31T07:58:51;1.60;;;1.50;;
8610;SDS011;4343;53.648;10.098;2023-07-31T08:01:17;1.30;;;1.30;;
8610;SDS011;4343;53.648;10.098;2023-07-31T08:03:43;1.60;;;1.60;;
8610;SDS011;4343;53.648;10.098;2023-07-31T08:06:09;1.35;;;1.30;;
8610;SDS011;4343;53.648;10.098;2023-07-31T08:08:35;1.30;;;1.30;;
8610;SDS011;4343;53.648;10.098;2023-07-31T08:11:01;1.20;;;1.20;;
8610;SDS011;4343;53.648;10.098;2023-07-31T08:13:27;1.42;;;1.33;;
8610;SDS011;4343;53.648;10.098;2023-07-31T08:15:52;1.27;;;1.27;;
8610;SDS011;4343;53.648;10.098;2023-07-31T08:18:18;1.38;;;1.38;;
8610;SDS011;4343;53.648;10.098;2023-07-31T08:20:43;1.50;;;1.48;;
8610;SDS011;4343;53.648;10.098;2023-07-31T08:23:09;1.35;;;1.35;;
8610;SDS011;4343;53.648;10.098;2023-07-31T08:25:35;1.40;;;1.40;;
8610;SDS011;4343;53.648;10.098;2023-07-31T08:28:02;1.33;;;1.33;;
8610;SDS011;4343;53.648;10.098;2023-07-31T08:30:28;1.52;;;1.50;;
8610;SDS011;4343;53.648;10.098;2023-07-31T08:32:54;1.60;;;1.60;;
8610;SDS011;4343;53.648;10.098;2023-07-31T08:35:19;1.50;;;1.50;;
8610;SDS011;4343;53.648;10.098;2023-07-31T08:37:45;2.38;;;2.28;;
8610;SDS011;4343;53.648;10.098;2023-07-31T08:40:10;1.50;;;1.50;;
8610;SDS011;4343;53.648;10.098;2023-07-31T08:42:43;1.60;;;1.60;;
8610;SDS011;4343;53.648;10.098;2023-07-31T08:45:09;1.23;;;1.23;;
8610;SDS011;4343;53.648;10.098;2023-07-31T08:47:47;1.60;;;1.60;;
8610;SDS011;4343;53.648;10.098;2023-07-31T08:50:15;1.40;;;1.40;;
8610;SDS011;4343;53.648;10.098;2023-07-31T08:52:43;1.77;;;1.77;;
8610;SDS011;4343;53.648;10.098;2023-07-31T08:55:08;1.70;;;1.70;;
8610;SDS011;4343;53.648;10.098;2023-07-31T08:57:35;1.65;;;1.65;;
8610;SDS011;4343;53.648;10.098;2023-07-31T09:00:04;1.67;;;1.60;;
8610;SDS011;4343;53.648;10.098;2023-07-31T09:02:35;1.40;;;1.40;;
8610;SDS011;4343;53.648;10.098;2023-07-31T09:05:08;1.52;;;1.52;;
8610;SDS011;4343;53.648;10.098;2023-07-31T09:07:35;1.60;;;1.60;;
8610;SDS011;4343;53.648;10.098;2023-07-31T09:10:01;1.45;;;1.45;;
8610;SDS011;4343;53.648;10.098;2023-07-31T09:12:27;1.67;;;1.67;;
8610;SDS011;4343;53.648;10.098;2023-07-31T09:14:53;1.60;;;1.60;;
8610;SDS011;4343;53.648;10.098;2023-07-31T09:17:28;1.40;;;1.40;;
8610;SDS011;4343;53.648;10.098;2023-07-31T09:19:58;1.58;;;1.50;;
8610;SDS011;4343;53.648;10.098;2023-07-31T09:22:37;1.23;;;1.23;;
8610;SDS011;4343;53.648;10.098;2023-07-31T09:25:14;1.50;;;1.50;;
8610;SDS011;4343;53.648;10.098;2023-07-31T09:28:00;1.13;;;1.13;;
8610;SDS011;4343;53.648;10.098;2023-07-31T09:30:27;1.45;;;1.45;;
8610;SDS011;4343;53.648;10.098;2023-07-31T09:33:03;1.20;;;1.20;;
8610;SDS011;4343;53.648;10.098;2023-07-31T09:35:32;1.40;;;1.30;;
8610;SDS011;4343;53.648;10.098;2023-07-31T09:38:00;1.38;;;1.27;;
8610;SDS011;4343;53.648;10.098;2023-07-31T09:40:29;1.30;;;1.20;;
8610;SDS011;4343;53.648;10.098;2023-07-31T09:42:56;2.10;;;1.40;;
8610;SDS011;4343;53.648;10.098;2023-07-31T09:45:23;1.38;;;1.20;;
8610;SDS011;4343;53.648;10.098;2023-07-31T09:47:49;1.10;;;1.10;;
8610;SDS011;4343;53.648;10.098;2023-07-31T09:50:15;1.02;;;1.02;;
8610;SDS011;4343;53.648;10.098;2023-07-31T09:52:43;1.33;;;1.20;;
8610;SDS011;4343;53.648;10.098;2023-07-31T09:55:09;1.58;;;1.25;;
8610;SDS011;4343;53.648;10.098;2023-07-31T09:57:39;2.13;;;1.20;;
8610;SDS011;4343;53.648;10.098;2023-07-31T10:00:09;1.25;;;1.25;;
8610;SDS011;4343;53.648;10.098;2023-07-31T10:02:36;1.10;;;1.10;;
8610;SDS011;4343;53.648;10.098;2023-07-31T10:05:03;1.15;;;1.15;;
8610;SDS011;4343;53.648;10.098;2023-07-31T10:07:30;1.00;;;1.00;;
8610;SDS011;4343;53.648;10.098;2023-07-31T10:09:58;1.15;;;1.15;;
8610;SDS011;4343;53.648;10.098;2023-07-31T10:12:27;1.02;;;1.02;;
8610;SDS011;4343;53.648;10.098;2023-07-31T10:14:56;1.00;;;1.00;;
8610;SDS011;4343;53.648;10.098;2023-07-31T10:17:24;1.15;;;1.15;;
8610;SDS011;4343;53.648;10.098;2023-07-31T10:19:50;1.10;;;1.10;;
8610;SDS011;4343;53.648;10.098;2023-07-31T10:22:18;1.00;;;1.00;;
8610;SDS011;4343;53.648;10.098;2023-07-31T10:24:45;1.00;;;1.00;;
8610;SDS011;4343;53.648;10.098;2023-07-31T10:27:11;1.10;;;1.10;;
8610;SDS011;4343;53.648;10.098;2023-07-31T10:29:41;0.95;;;0.95;;
8610;SDS011;4343;53.648;10.098;2023-07-31T10:32:09;2.50;;;1.45;;
8610;SDS011;4343;53.648;10.098;2023-07-31T10:34:36;1.20;;;1.20;;
8610;SDS011;4343;53.648;10.098;2023-07-31T10:42:28;0.90;;;0.90;;
8610;SDS011;4343;53.648;10.098;2023-07-31T10:44:56;0.73;;;0.73;;
8610;SDS011;4343;53.648;10.098;2023-07-31T10:47:26;1.20;;;1.20;;
8610;SDS011;4343;53.648;10.098;2023-07-31T10:50:11;0.90;;;0.90;;
8610;SDS011;4343;53.648;10.098;2023-07-31T10:52:37;1.00;;;1.00;;
8610;SDS011;4343;53.648;10.098;2023-07-31T10:57:50;1.15;;;1.00;;
8610;SDS011;4343;53.648;10.098;2023-07-31T11:02:59;0.80;;;0.80;;
8610;SDS011;4343;53.648;10.098;2023-07-31T11:08:22;0.90;;;0.90;;
8610;SDS011;4343;53.648;10.098;2023-07-31T11:13:26;0.75;;;0.70;;
8610;SDS011;4343;53.648;10.098;2023-07-31T11:15:55;0.70;;;0.70;;
8610;SDS011;4343;53.648;10.098;2023-07-31T11:18:21;0.80;;;0.80;;
8610;SDS011;4343;53.648;10.098;2023-07-31T11:20:47;1.10;;;0.77;;
8610;SDS011;4343;53.648;10.098;2023-07-31T11:23:13;0.63;;;0.63;;
8610;SDS011;4343;53.648;10.098;2023-07-31T11:25:41;0.95;;;0.95;;
8610;SDS011;4343;53.648;10.098;2023-07-31T11:28:10;0.80;;;0.80;;
8610;SDS011;4343;53.648;10.098;2023-07-31T11:30:40;1.00;;;1.00;;
8610;SDS011;4343;53.648;10.098;2023-07-31T11:33:07;0.90;;;0.90;;
8610;SDS011;4343;53.648;10.098;2023-07-31T11:35:34;1.40;;;0.80;;
8610;SDS011;4343;53.648;10.098;2023-07-31T11:38:01;1.15;;;1.15;;
8610;SDS011;4343;53.648;10.098;2023-07-31T11:40:28;1.05;;;1.05;;
8610;SDS011;4343;53.648;10.098;2023-07-31T11:43:03;1.00;;;1.00;;
8610;SDS011;4343;53.648;10.098;2023-07-31T11:45:29;1.35;;;1.27;;
8610;SDS011;4343;53.648;10.098;2023-07-31T11:47:55;1.27;;;1.27;;
8610;SDS011;4343;53.648;10.098;2023-07-31T11:50:22;1.20;;;1.20;;
8610;SDS011;4343;53.648;10.098;2023-07-31T11:52:50;1.60;;;1.50;;
8610;SDS011;4343;53.648;10.098;2023-07-31T11:55:21;1.20;;;1.20;;
8610;SDS011;4343;53.648;10.098;2023-07-31T11:57:48;1.52;;;1.30;;
8610;SDS011;4343;53.648;10.098;2023-07-31T12:00:15;1.20;;;1.20;;
8610;SDS011;4343;53.648;10.098;2023-07-31T12:02:41;1.15;;;1.13;;
8610;SDS011;4343;53.648;10.098;2023-07-31T12:05:14;0.90;;;0.90;;
8610;SDS011;4343;53.648;10.098;2023-07-31T12:07:45;1.05;;;0.98;;
8610;SDS011;4343;53.648;10.098;2023-07-31T12:10:22;0.73;;;0.73;;
8610;SDS011;4343;53.648;10.098;2023-07-31T12:13:04;0.85;;;0.85;;
8610;SDS011;4343;53.648;10.098;2023-07-31T12:15:40;0.80;;;0.80;;
8610;SDS011;4343;53.648;10.098;2023-07-31T12:18:08;0.80;;;0.80;;
8610;SDS011;4343;53.648;10.098;2023-07-31T12:21:02;2.47;;;0.88;;
8610;SDS011;4343;53.648;10.098;2023-07-31T12:23:31;0.70;;;0.70;;
8610;SDS011;4343;53.648;10.098;2023-07-31T12:26:01;0.90;;;0.80;;
8610;SDS011;4343;53.648;10.098;2023-07-31T12:28:26;0.75;;;0.75;;
8610;SDS011;4343;53.648;10.098;2023-07-31T12:30:52;2.53;;;1.00;;
8610;SDS011;4343;53.648;10.098;2023-07-31T12:33:23;0.70;;;0.70;;
8610;SDS011;4343;53.648;10.098;2023-07-31T12:35:48;0.77;;;0.77;;
8610;SDS011;4343;53.648;10.098;2023-07-31T12:38:14;0.80;;;0.80;;
8610;SDS011;4343;53.648;10.098;2023-07-31T12:40:40;1.05;;;0.95;;
8610;SDS011;4343;53.648;10.098;2023-07-31T12:43:07;0.77;;;0.77;;
8610;SDS011;4343;53.648;10.098;2023-07-31T12:45:33;0.63;;;0.63;;
8610;SDS011;4343;53.648;10.098;2023-07-31T12:47:59;12.80;;;1.42;;
8610;SDS011;4343;53.648;10.098;2023-07-31T12:50:25;0.75;;;0.75;;
8610;SDS011;4343;53.648;10.098;2023-07-31T12:52:52;1.00;;;0.90;;
8610;SDS011;4343;53.648;10.098;2023-07-31T12:55:18;0.55;;;0.55;;
8610;SDS011;4343;53.648;10.098;2023-07-31T12:57:44;0.73;;;0.73;;
8610;SDS011;4343;53.648;10.098;2023-07-31T13:00:10;0.68;;;0.68;;
8610;SDS011;4343;53.648;10.098;2023-07-31T13:02:36;0.80;;;0.77;;
8610;SDS011;4343;53.648;10.098;2023-07-31T13:05:01;0.68;;;0.68;;
8610;SDS011;4343;53.648;10.098;2023-07-31T13:07:27;0.50;;;0.50;;
8610;SDS011;4343;53.648;10.098;2023-07-31T13:09:53;0.65;;;0.65;;
8610;SDS011;4343;53.648;10.098;2023-07-31T13:12:18;0.70;;;0.70;;
8610;SDS011;4343;53.648;10.098;2023-07-31T13:14:44;0.70;;;0.70;;
8610;SDS011;4343;53.648;10.098;2023-07-31T13:17:09;0.63;;;0.63;;
8610;SDS011;4343;53.648;10.098;2023-07-31T13:19:35;0.93;;;0.93;;
8610;SDS011;4343;53.648;10.098;2023-07-31T13:22:00;0.70;;;0.70;;
8610;SDS011;4343;53.648;10.098;2023-07-31T13:24:26;0.70;;;0.70;;
8610;SDS011;4343;53.648;10.098;2023-07-31T13:26:51;0.85;;;0.85;;
8610;SDS011;4343;53.648;10.098;2023-07-31T13:29:17;0.63;;;0.63;;
8610;SDS011;4343;53.648;10.098;2023-07-31T13:31:42;0.60;;;0.60;;
8610;SDS011;4343;53.648;10.098;2023-07-31T13:34:08;0.82;;;0.80;;
8610;SDS011;4343;53.648;10.098;2023-07-31T13:36:33;0.70;;;0.70;;
8610;SDS011;4343;53.648;10.098;2023-07-31T13:38:59;1.45;;;0.85;;
8610;SDS011;4343;53.648;10.098;2023-07-31T13:41:25;0.70;;;0.70;;
8610;SDS011;4343;53.648;10.098;2023-07-31T13:43:51;0.70;;;0.70;;
8610;SDS011;4343;53.648;10.098;2023-07-31T13:46:16;0.55;;;0.55;;
8610;SDS011;4343;53.648;10.098;2023-07-31T13:48:42;1.23;;;1.20;;
8610;SDS011;4343;53.648;10.098;2023-07-31T13:51:07;0.63;;;0.63;;
8610;SDS011;4343;53.648;10.098;2023-07-31T13:53:33;0.75;;;0.75;;
8610;SDS011;4343;53.648;10.098;2023-07-31T13:55:58;0.70;;;0.70;;
8610;SDS011;4343;53.648;10.098;2023-07-31T13:58:24;0.80;;;0.80;;
8610;SDS011;4343;53.648;10.098;2023-07-31T14:00:49;1.10;;;0.90;;
8610;SDS011;4343;53.648;10.098;2023-07-31T14:03:15;0.60;;;0.60;;
8610;SDS011;4343;53.648;10.098;2023-07-31T14:05:40;0.68;;;0.68;;
8610;SDS011;4343;53.648;10.098;2023-07-31T14:08:06;1.30;;;0.88;;
8610;SDS011;4343;53.648;10.098;2023-07-31T14:10:32;0.45;;;0.45;;
8610;SDS011;4343;53.648;10.098;2023-07-31T14:12:58;0.70;;;0.70;;
8610;SDS011;4343;53.648;10.098;2023-07-31T14:15:23;0.90;;;0.90;;
8610;SDS011;4343;53.648;10.098;2023-07-31T14:17:49;0.85;;;0.85;;
8610;SDS011;4343;53.648;10.098;2023-07-31T14:20:14;0.70;;;0.63;;
8610;SDS011;4343;53.648;10.098;2023-07-31T14:22:40;0.80;;;0.80;;
8610;SDS011;4343;53.648;10.098;2023-07-31T14:25:05;0.60;;;0.60;;
8610;SDS011;4343;53.648;10.098;2023-07-31T14:27:31;0.50;;;0.50;;
8610;SDS011;4343;53.648;10.098;2023-07-31T14:29:58;0.77;;;0.70;;
8610;SDS011;4343;53.648;10.098;2023-07-31T14:32:23;0.77;;;0.70;;
8610;SDS011;4343;53.648;10.098;2023-07-31T14:34:50;0.70;;;0.70;;
8610;SDS011;4343;53.648;10.098;2023-07-31T14:37:16;0.60;;;0.60;;
8610;SDS011;4343;53.648;10.098;2023-07-31T14:39:41;0.77;;;0.77;;
8610;SDS011;4343;53.648;10.098;2023-07-31T14:42:08;0.50;;;0.50;;
8610;SDS011;4343;53.648;10.098;2023-07-31T14:44:33;0.50;;;0.50;;
8610;SDS011;4343;53.648;10.098;2023-07-31T14:46:59;0.70;;;0.70;;
8610;SDS011;4343;53.648;10.098;2023-07-31T14:49:24;0.70;;;0.70;;
8610;SDS011;4343;53.648;10.098;2023-07-31T14:51:52;0.60;;;0.60;;
8610;SDS011;4343;53.648;10.098;2023-07-31T14:54:17;0.60;;;0.60;;
8610;SDS011;4343;53.648;10.098;2023-07-31T14:56:43;0.60;;;0.60;;
8610;SDS011;4343;53.648;10.098;2023-07-31T14:59:08;0.55;;;0.55;;
8610;SDS011;4343;53.648;10.098;2023-07-31T15:01:34;0.63;;;0.63;;
8610;SDS011;4343;53.648;10.098;2023-07-31T15:04:00;0.30;;;0.30;;
8610;SDS011;4343;53.648;10.098;2023-07-31T15:06:26;0.68;;;0.57;;
8610;SDS011;4343;53.648;10.098;2023-07-31T15:08:51;0.60;;;0.60;;
8610;SDS011;4343;53.648;10.098;2023-07-31T15:11:16;0.65;;;0.65;;
8610;SDS011;4343;53.648;10.098;2023-07-31T15:13:43;0.55;;;0.55;;
8610;SDS011;4343;53.648;10.098;2023-07-31T15:16:08;0.43;;;0.43;;
8610;SDS011;4343;53.648;10.098;2023-07-31T15:18:34;0.73;;;0.73;;
8610;SDS011;4343;53.648;10.098;2023-07-31T15:20:59;0.77;;;0.77;;
8610;SDS011;4343;53.648;10.098;2023-07-31T15:23:25;0.65;;;0.65;;